Time;durP1;ratioP1;P1;durP2;ratioP2;P2;SDS_P1;SDS_P2;PMS_P1;PMS_P2;Temp;Humidity;BMP_temperature;BMP_pressure;BME280_temperature;BME280_humidity;BME280_pressure;Samples;Min_cycle;Max_cycle;Signal;HPM_P1;HPM_P2
2022/08/04 00:04:07;;;;;;;;;;;;;;;20.91;70.41;95567.97;10528009;28;1839;-71
2022/08/04 00:09:11;;;;;;;;;;;;;;;20.86;70.86;95570.94;10526494;28;1747;-70
2022/08/04 00:14:14;;;;;;;;;;;;;;;20.79;72.08;95566.84;10521872;28;1775;-70
2022/08/04 00:19:19;;;;;;;;;;;;;;;20.74;71.75;95577.22;10527812;28;1994;-70
2022/08/04 00:24:22;;;;;;;;;;;;;;;20.70;72.07;95568.13;10524031;28;1838;-72
2022/08/04 00:29:26;;;;;;;;;;;;;;;20.63;72.77;95574.16;10542589;28;1815;-70
2022/08/04 00:34:29;;;;;;;;;;;;;;;20.50;73.75;95576.09;10528340;28;1815;-72
2022/08/04 00:39:33;;;;;;;;;;;;;;;20.38;74.62;95561.63;10528426;28;2346;-70
2022/08/04 00:44:37;;;;;;;;;;;;;;;20.27;74.77;95561.28;10557800;27;1941;-70
2022/08/04 00:49:41;;;;;;;;;;;;;;;20.17;75.42;95573.44;10539839;28;2012;-70
2022/08/04 00:54:45;;;;;;;;;;;;;;;20.15;75.53;95564.00;10526973;28;1917;-70
2022/08/04 00:59:49;;;;;;;;;;;;;;;20.03;75.71;95572.97;10524964;28;1913;-70
2022/08/04 01:04:53;;;;;;;;;;;;;;;20.01;75.83;95575.22;10525694;28;2044;-70
2022/08/04 01:09:56;;;;;;;;;;;;;;;19.98;76.56;95571.25;10524955;28;1961;-70
2022/08/04 01:15:02;;;;;;;;;;;;;;;19.87;77.40;95563.84;10526601;28;2023;-71
2022/08/04 01:20:06;;;;;;;;;;;;;;;19.85;77.31;95577.84;10524117;28;1937;-70
2022/08/04 01:25:11;;;;;;;;;;;;;;;19.87;76.87;95559.19;10525085;28;2014;-70
2022/08/04 01:30:17;;;;;;;;;;;;;;;19.90;76.85;95579.53;10525783;28;2373;-70
2022/08/04 01:35:23;;;;;;;;;;;;;;;19.95;77.54;95577.38;10526155;28;1969;-70
2022/08/04 01:41:06;;;;;;;;;;;;;;;19.88;78.62;95574.41;10522363;28;1988;-71
2022/08/04 01:46:15;;;;;;;;;;;;;;;20.01;78.08;95571.72;10524242;28;2017;-70
2022/08/04 01:51:19;;;;;;;;;;;;;;;19.90;78.86;95574.88;10522140;28;1910;-70
2022/08/04 01:56:23;;;;;;;;;;;;;;;19.76;80.12;95579.84;10523820;28;1932;-70
2022/08/04 02:01:27;;;;;;;;;;;;;;;19.66;81.14;95577.56;10539659;28;1973;-70
2022/08/04 02:06:35;;;;;;;;;;;;;;;19.44;81.91;95568.56;10522378;28;2171;-70
2022/08/04 02:11:38;;;;;;;;;;;;;;;19.39;82.14;95576.94;10539436;28;1890;-70
2022/08/04 02:16:42;;;;;;;;;;;;;;;19.29;82.44;95571.91;10519938;28;1985;-70
2022/08/04 02:21:46;;;;;;;;;;;;;;;19.25;82.16;95573.72;10521876;28;2123;-70
2022/08/04 02:26:50;;;;;;;;;;;;;;;19.22;82.59;95576.31;10524205;28;1946;-69
2022/08/04 02:31:54;;;;;;;;;;;;;;;19.11;83.19;95565.03;10520651;28;1945;-70
2022/08/04 02:36:57;;;;;;;;;;;;;;;19.11;83.26;95570.47;10524901;28;2024;-71
2022/08/04 02:42:01;;;;;;;;;;;;;;;19.04;84.19;95570.22;10519901;28;1926;-70
2022/08/04 02:47:05;;;;;;;;;;;;;;;18.93;84.30;95566.28;10523531;28;2092;-71
2022/08/04 02:52:09;;;;;;;;;;;;;;;18.85;85.50;95565.22;10522980;28;1921;-69
2022/08/04 02:57:12;;;;;;;;;;;;;;;18.86;86.03;95559.44;10522432;28;2028;-70
2022/08/04 03:02:17;;;;;;;;;;;;;;;18.80;86.88;95560.75;10520659;28;1898;-69
2022/08/04 03:07:21;;;;;;;;;;;;;;;18.80;87.18;95558.03;10523669;28;2040;-70
2022/08/04 03:12:26;;;;;;;;;;;;;;;18.83;87.68;95560.09;10521787;28;1981;-71
2022/08/04 03:17:29;;;;;;;;;;;;;;;18.81;88.31;95556.09;10555631;28;1992;-70
2022/08/04 03:22:33;;;;;;;;;;;;;;;18.73;88.49;95552.31;10523185;28;1988;-70
2022/08/04 03:27:37;;;;;;;;;;;;;;;18.80;88.51;95552.59;10520162;28;2024;-70
2022/08/04 03:32:40;;;;;;;;;;;;;;;18.72;88.58;95556.19;10517771;28;1985;-71
2022/08/04 03:37:44;;;;;;;;;;;;;;;18.74;88.69;95561.28;10520270;28;2062;-69
2022/08/04 03:42:48;;;;;;;;;;;;;;;18.73;88.47;95557.75;10515475;28;1998;-70
2022/08/04 03:47:51;;;;;;;;;;;;;;;18.65;89.34;95564.03;10520228;28;2097;-70
2022/08/04 03:53:10;;;;;;;;;;;;;;;18.64;89.46;95557.81;10518028;28;1915;-70
2022/08/04 03:58:14;;;;;;;;;;;;;;;18.60;89.81;95566.94;10521186;28;2287;-70
2022/08/04 04:03:17;;;;;;;;;;;;;;;18.64;89.69;95559.72;10518040;28;1953;-70
2022/08/04 04:08:31;;;;;;;;;;;;;;;18.78;88.70;95559.50;10519144;28;1877;-71
2022/08/04 04:13:34;;;;;;;;;;;;;;;18.95;87.30;95564.00;10522310;28;1981;-69
2022/08/04 04:18:38;;;;;;;;;;;;;;;19.22;85.58;95563.50;10529034;28;1966;-70
2022/08/04 04:23:41;;;;;;;;;;;;;;;19.50;83.38;95569.16;10527058;28;1934;-70
2022/08/04 04:28:46;;;;;;;;;;;;;;;19.81;81.72;95571.44;10525850;28;1949;-70
2022/08/04 04:33:50;;;;;;;;;;;;;;;20.11;79.80;95569.34;10526871;28;1981;-70
2022/08/04 04:38:55;;;;;;;;;;;;;;;20.34;78.89;95572.41;10525249;28;1969;-71
2022/08/04 04:43:59;;;;;;;;;;;;;;;20.52;77.38;95576.56;10526851;28;1926;-71
2022/08/04 04:49:03;;;;;;;;;;;;;;;20.88;75.74;95574.94;10526896;28;2065;-69
2022/08/04 04:54:07;;;;;;;;;;;;;;;21.18;74.47;95577.34;10528822;28;1953;-69
2022/08/04 04:59:10;;;;;;;;;;;;;;;21.34;73.03;95582.94;10523571;28;2020;-70
2022/08/04 05:04:13;;;;;;;;;;;;;;;21.63;71.45;95584.50;10525131;28;1941;-71
2022/08/04 05:09:17;;;;;;;;;;;;;;;22.20;68.57;95594.28;10524919;28;1997;-70
2022/08/04 05:14:22;;;;;;;;;;;;;;;22.45;67.42;95590.22;10523803;28;1981;-70
2022/08/04 05:19:42;;;;;;;;;;;;;;;22.80;66.27;95589.50;10525114;28;2049;-70
2022/08/04 05:24:47;;;;;;;;;;;;;;;23.11;64.27;95578.47;10557667;27;1996;-70
2022/08/04 05:29:50;;;;;;;;;;;;;;;23.15;63.57;95578.53;10526413;28;1937;-71
2022/08/04 05:34:54;;;;;;;;;;;;;;;23.58;62.71;95574.72;10527224;28;2069;-70
2022/08/04 05:39:58;;;;;;;;;;;;;;;23.78;61.96;95577.50;10521891;28;1940;-69
2022/08/04 05:45:01;;;;;;;;;;;;;;;24.11;60.69;95579.66;10522100;28;1985;-71
2022/08/04 05:50:05;;;;;;;;;;;;;;;24.30;59.92;95581.56;10523556;28;1980;-71
2022/08/04 05:55:12;;;;;;;;;;;;;;;24.81;57.60;95582.03;10524840;28;1946;-72
2022/08/04 06:00:35;;;;;;;;;;;;;;;24.89;55.14;95578.25;10524404;28;1953;-72
2022/08/04 06:05:43;;;;;;;;;;;;;;;24.98;55.84;95578.75;10555430;27;2053;-70
2022/08/04 06:10:47;;;;;;;;;;;;;;;25.18;54.36;95581.41;10522652;28;1982;-71
2022/08/04 06:15:50;;;;;;;;;;;;;;;25.08;55.55;95580.13;10524289;28;1953;-70
2022/08/04 06:20:53;;;;;;;;;;;;;;;25.14;55.05;95586.09;10522366;28;1981;-71
2022/08/04 06:25:57;;;;;;;;;;;;;;;25.83;52.16;95583.81;10524820;28;1920;-70
2022/08/04 06:31:04;;;;;;;;;;;;;;;25.96;51.82;95584.34;10522644;28;1908;-71
2022/08/04 06:36:29;;;;;;;;;;;;;;;26.01;52.00;95578.50;10556033;27;1976;-70
2022/08/04 06:41:32;;;;;;;;;;;;;;;26.06;51.74;95580.94;10521409;28;2090;-71
2022/08/04 06:46:36;;;;;;;;;;;;;;;26.06;50.85;95578.19;10523491;28;1878;-70
2022/08/04 06:51:39;;;;;;;;;;;;;;;26.49;50.74;95579.41;10518889;28;1969;-70
2022/08/04 06:56:51;;;;;;;;;;;;;;;26.67;48.55;95571.28;10522595;28;1981;-70
2022/08/04 07:01:54;;;;;;;;;;;;;;;26.94;48.78;95580.94;10523768;28;1913;-70
2022/08/04 07:06:58;;;;;;;;;;;;;;;27.05;49.28;95578.28;10553666;28;1953;-70
2022/08/04 07:12:02;;;;;;;;;;;;;;;27.26;48.52;95585.88;10521956;28;1913;-71
2022/08/04 07:17:06;;;;;;;;;;;;;;;27.39;48.32;95583.59;10554940;28;1964;-70
2022/08/04 07:22:10;;;;;;;;;;;;;;;27.77;47.12;95587.72;10519403;28;1898;-72
2022/08/04 07:27:28;;;;;;;;;;;;;;;28.05;45.19;95575.16;10519398;28;1961;-71
2022/08/04 07:32:51;;;;;;;;;;;;;;;27.64;45.64;95581.72;10522936;28;2032;-71
2022/08/04 07:37:55;;;;;;;;;;;;;;;27.90;44.61;95579.88;10520479;28;1941;-71
2022/08/04 07:43:01;;;;;;;;;;;;;;;27.99;44.00;95585.81;10522785;28;1985;-72
2022/08/04 07:48:06;;;;;;;;;;;;;;;28.52;43.02;95585.94;10522118;28;2045;-71
2022/08/04 07:53:09;;;;;;;;;;;;;;;29.01;41.82;95580.78;10528583;28;1912;-71
2022/08/04 07:58:33;;;;;;;;;;;;;;;29.37;40.45;95575.19;10528180;28;2056;-72
2022/08/04 08:03:37;;;;;;;;;;;;;;;29.31;39.86;95572.03;10526983;28;1943;-71
2022/08/04 08:08:40;;;;;;;;;;;;;;;29.04;40.48;95574.47;10527116;28;2026;-74
2022/08/04 08:13:44;;;;;;;;;;;;;;;29.36;40.28;95588.25;10523792;28;1977;-72
2022/08/04 08:18:48;;;;;;;;;;;;;;;29.44;39.55;95580.69;10529528;28;2032;-71
2022/08/04 08:23:52;;;;;;;;;;;;;;;28.95;40.44;95583.19;10527319;28;1975;-71
2022/08/04 08:28:56;;;;;;;;;;;;;;;29.47;39.31;95579.91;10560017;27;1960;-71
2022/08/04 08:34:00;;;;;;;;;;;;;;;29.82;38.19;95573.47;10529240;28;2628;-73
2022/08/04 08:39:03;;;;;;;;;;;;;;;29.57;38.20;95585.44;10529078;28;2107;-74
2022/08/04 08:44:06;;;;;;;;;;;;;;;29.85;37.51;95575.44;10527252;28;1954;-72
2022/08/04 08:49:11;;;;;;;;;;;;;;;29.99;36.86;95572.59;10541188;28;1980;-71
2022/08/04 08:54:34;;;;;;;;;;;;;;;30.21;35.79;95572.47;10528402;28;1993;-72
2022/08/04 08:59:38;;;;;;;;;;;;;;;29.89;35.93;95581.72;10524375;28;2004;-71
2022/08/04 09:04:42;;;;;;;;;;;;;;;30.35;35.79;95583.50;10521325;28;1964;-73
2022/08/04 09:09:48;;;;;;;;;;;;;;;30.53;36.00;95572.25;10524997;28;1965;-72
2022/08/04 09:14:51;;;;;;;;;;;;;;;30.83;36.04;95580.75;10525338;28;2012;-72
2022/08/04 09:19:55;;;;;;;;;;;;;;;30.93;34.36;95568.00;10526897;28;1933;-72
2022/08/04 09:24:58;;;;;;;;;;;;;;;30.93;34.82;95568.78;10558787;27;1890;-72
2022/08/04 09:30:03;;;;;;;;;;;;;;;30.77;34.50;95565.75;10523810;28;1957;-73
2022/08/04 09:35:06;;;;;;;;;;;;;;;30.61;34.56;95565.47;10526240;28;1965;-71
2022/08/04 09:40:17;;;;;;;;;;;;;;;30.45;34.94;95565.19;10524988;28;2020;-71
2022/08/04 09:45:38;;;;;;;;;;;;;;;30.62;33.92;95567.84;10540095;28;1973;-71
2022/08/04 09:50:46;;;;;;;;;;;;;;;31.04;32.96;95568.66;10538163;28;1972;-71
2022/08/04 09:55:53;;;;;;;;;;;;;;;31.25;32.30;95564.16;10527070;28;1962;-73
2022/08/04 10:01:02;;;;;;;;;;;;;;;31.35;32.01;95555.69;10523256;28;1917;-71
2022/08/04 10:06:06;;;;;;;;;;;;;;;31.43;32.14;95556.41;10523327;28;1951;-70
2022/08/04 10:11:09;;;;;;;;;;;;;;;30.94;32.81;95556.50;10523336;28;1947;-70
2022/08/04 10:16:13;;;;;;;;;;;;;;;31.24;31.99;95554.22;10526674;28;1936;-70
2022/08/04 10:21:16;;;;;;;;;;;;;;;31.36;32.07;95548.94;10556384;27;1976;-75
2022/08/04 10:26:19;;;;;;;;;;;;;;;31.59;32.23;95550.25;10524216;28;1925;-71
2022/08/04 10:31:23;;;;;;;;;;;;;;;31.88;31.79;95543.19;10520617;28;1859;-71
2022/08/04 10:36:26;;;;;;;;;;;;;;;31.85;31.04;95540.44;10523090;28;2000;-71
2022/08/04 10:41:30;;;;;;;;;;;;;;;31.55;29.87;95533.63;10522856;28;1975;-71
2022/08/04 10:46:34;;;;;;;;;;;;;;;31.84;29.28;95527.75;10524322;28;1897;-70
2022/08/04 10:51:37;;;;;;;;;;;;;;;31.61;30.05;95534.75;10524447;28;1922;-70
2022/08/04 10:57:01;;;;;;;;;;;;;;;32.42;28.02;95531.28;10519371;28;1965;-71
2022/08/04 11:02:05;;;;;;;;;;;;;;;32.94;27.08;95533.63;10520019;28;2346;-71
2022/08/04 11:07:08;;;;;;;;;;;;;;;32.26;28.44;95523.56;10521740;28;1970;-70
2022/08/04 11:12:12;;;;;;;;;;;;;;;32.85;26.75;95525.81;10522309;28;1992;-70
2022/08/04 11:17:16;;;;;;;;;;;;;;;33.62;26.07;95516.44;10558634;28;2163;-70
2022/08/04 11:22:20;;;;;;;;;;;;;;;34.14;25.94;95513.72;10520672;28;1943;-71
2022/08/04 11:27:24;;;;;;;;;;;;;;;33.91;24.88;95521.38;10529209;28;2103;-70
2022/08/04 11:32:27;;;;;;;;;;;;;;;34.13;24.34;95508.56;10529219;28;1964;-70
2022/08/04 11:37:31;;;;;;;;;;;;;;;33.80;25.07;95516.06;10528501;28;1967;-72
2022/08/04 11:42:35;;;;;;;;;;;;;;;33.40;25.57;95509.69;10530938;28;1950;-71
2022/08/04 11:47:39;;;;;;;;;;;;;;;32.96;26.32;95517.31;10528262;28;1975;-71
2022/08/04 11:52:44;;;;;;;;;;;;;;;32.36;26.98;95522.63;10527421;28;2376;-71
2022/08/04 11:57:47;;;;;;;;;;;;;;;31.93;26.41;95511.31;10524362;28;1975;-75
2022/08/04 12:02:56;;;;;;;;;;;;;;;31.93;26.75;95505.78;10561598;27;1900;-72
2022/08/04 12:08:01;;;;;;;;;;;;;;;32.53;26.60;95512.44;10525343;28;1890;-71
2022/08/04 12:13:05;;;;;;;;;;;;;;;32.72;25.98;95514.50;10525769;28;1815;-71
2022/08/04 12:18:09;;;;;;;;;;;;;;;32.56;26.71;95508.78;10526814;28;1914;-71
2022/08/04 12:23:13;;;;;;;;;;;;;;;32.76;26.60;95495.72;10526293;28;1926;-71
2022/08/04 12:28:17;;;;;;;;;;;;;;;32.91;26.23;95501.09;10526696;28;1854;-71
2022/08/04 12:33:20;;;;;;;;;;;;;;;32.96;26.22;95501.38;10542390;28;1958;-70
2022/08/04 12:38:24;;;;;;;;;;;;;;;33.16;26.16;95495.84;10526275;28;1971;-71
2022/08/04 12:43:27;;;;;;;;;;;;;;;33.35;25.82;95494.25;10525713;28;1803;-71
2022/08/04 12:48:30;;;;;;;;;;;;;;;33.54;26.73;95487.94;10525320;28;1891;-69
2022/08/04 12:53:36;;;;;;;;;;;;;;;33.47;26.10;95492.88;10527532;28;1800;-72
2022/08/04 12:58:54;;;;;;;;;;;;;;;33.73;26.03;95482.75;10526417;28;1902;-71
2022/08/04 13:03:57;;;;;;;;;;;;;;;33.84;26.65;95478.50;10556030;27;1854;-71
2022/08/04 13:09:01;;;;;;;;;;;;;;;33.88;25.68;95482.00;10524887;28;1789;-71
2022/08/04 13:14:04;;;;;;;;;;;;;;;33.91;25.54;95476.78;10524617;28;1802;-71
2022/08/04 13:19:28;;;;;;;;;;;;;;;33.85;24.80;95468.94;10525972;28;1910;-71
2022/08/04 13:24:31;;;;;;;;;;;;;;;33.81;25.07;95468.22;10525084;28;1859;-70
2022/08/04 13:29:39;;;;;;;;;;;;;;;33.80;25.37;95463.09;10522538;28;1860;-71
2022/08/04 13:35:04;;;;;;;;;;;;;;;33.78;24.73;95463.50;10523489;28;1812;-71
2022/08/04 13:40:08;;;;;;;;;;;;;;;33.88;24.16;95462.47;10521672;28;1969;-71
2022/08/04 13:45:11;;;;;;;;;;;;;;;33.85;24.74;95452.22;10521893;28;1876;-71
2022/08/04 13:50:14;;;;;;;;;;;;;;;33.89;25.90;95449.31;10523910;28;1839;-70
2022/08/04 13:55:18;;;;;;;;;;;;;;;33.48;25.66;95449.84;10523211;28;1922;-70
2022/08/04 14:00:22;;;;;;;;;;;;;;;33.41;26.30;95447.22;10524298;28;1918;-71
2022/08/04 14:05:32;;;;;;;;;;;;;;;33.37;26.27;95426.97;10524110;28;1863;-71
2022/08/04 14:10:56;;;;;;;;;;;;;;;33.83;25.53;95434.34;10538925;28;1867;-70
2022/08/04 14:15:59;;;;;;;;;;;;;;;33.55;25.39;95430.19;10540307;28;1811;-71
2022/08/04 14:21:06;;;;;;;;;;;;;;;33.67;25.73;95426.75;10519391;28;1993;-72
2022/08/04 14:26:09;;;;;;;;;;;;;;;33.67;25.34;95421.16;10520460;28;1847;-71
2022/08/04 14:31:13;;;;;;;;;;;;;;;33.75;25.34;95414.19;10523801;28;1756;-70
2022/08/04 14:36:16;;;;;;;;;;;;;;;34.18;25.67;95415.22;10520874;28;1836;-72
2022/08/04 14:41:24;;;;;;;;;;;;;;;33.96;25.17;95423.31;10520581;28;2438;-72
2022/08/04 14:46:28;;;;;;;;;;;;;;;34.23;25.08;95417.47;10518768;28;1854;-72
2022/08/04 14:51:39;;;;;;;;;;;;;;;33.76;25.10;95421.34;10522201;28;1890;-69
2022/08/04 14:56:43;;;;;;;;;;;;;;;33.76;25.61;95409.41;10521118;28;1822;-70
2022/08/04 15:01:49;;;;;;;;;;;;;;;33.88;25.13;95417.88;10535996;28;1902;-70
2022/08/04 15:07:03;;;;;;;;;;;;;;;34.02;25.37;95399.25;10519534;28;1965;-71
2022/08/04 15:12:07;;;;;;;;;;;;;;;34.38;24.78;95399.94;10519419;28;1985;-69
2022/08/04 15:17:11;;;;;;;;;;;;;;;34.21;24.69;95403.97;10523531;28;1740;-71
2022/08/04 15:22:33;;;;;;;;;;;;;;;34.12;25.01;95406.59;10520250;28;1964;-71
2022/08/04 15:27:36;;;;;;;;;;;;;;;34.12;24.21;95395.44;10522666;28;1826;-71
2022/08/04 15:32:39;;;;;;;;;;;;;;;34.15;24.78;95389.75;10554802;28;1862;-71
2022/08/04 15:37:43;;;;;;;;;;;;;;;34.06;24.66;95388.81;10522093;28;1929;-71
2022/08/04 15:42:46;;;;;;;;;;;;;;;33.92;25.05;95378.03;10518977;28;1909;-71
2022/08/04 15:47:49;;;;;;;;;;;;;;;33.94;24.81;95381.16;10535455;28;1863;-70
2022/08/04 15:52:56;;;;;;;;;;;;;;;33.99;24.86;95375.06;10519632;28;1856;-70
2022/08/04 15:58:13;;;;;;;;;;;;;;;33.86;25.16;95369.34;10520661;28;2212;-72
2022/08/04 16:03:17;;;;;;;;;;;;;;;33.33;25.21;95372.09;10537194;28;2033;-71
2022/08/04 16:08:41;;;;;;;;;;;;;;;33.22;25.51;95368.78;10520014;28;1827;-70
2022/08/04 16:13:59;;;;;;;;;;;;;;;33.21;25.23;95364.44;10560661;27;1848;-71
2022/08/04 16:19:04;;;;;;;;;;;;;;;33.14;25.52;95358.22;10526878;28;1954;-71
2022/08/04 16:24:08;;;;;;;;;;;;;;;32.91;25.72;95357.09;10526132;28;1841;-72
2022/08/04 16:29:12;;;;;;;;;;;;;;;32.80;25.88;95362.84;10527087;28;1771;-71
2022/08/04 16:34:16;;;;;;;;;;;;;;;32.73;25.97;95360.22;10525539;28;1822;-70
2022/08/04 16:39:39;;;;;;;;;;;;;;;32.65;26.50;95350.44;10528253;28;1911;-71
2022/08/04 16:44:53;;;;;;;;;;;;;;;32.27;27.00;95352.72;10527848;28;1787;-71
2022/08/04 16:49:57;;;;;;;;;;;;;;;32.24;26.76;95348.00;10526303;28;1850;-71
2022/08/04 16:55:00;;;;;;;;;;;;;;;32.21;26.53;95344.06;10525082;28;1893;-71
2022/08/04 17:00:03;;;;;;;;;;;;;;;32.02;27.03;95350.38;10528255;28;1914;-71
2022/08/04 17:05:08;;;;;;;;;;;;;;;31.89;27.43;95343.84;10524648;28;1832;-71
2022/08/04 17:10:36;;;;;;;;;;;;;;;31.76;27.87;95343.63;10523369;28;1862;-71
2022/08/04 17:15:40;;;;;;;;;;;;;;;31.68;28.01;95340.19;10558695;27;1839;-71
2022/08/04 17:20:43;;;;;;;;;;;;;;;31.59;27.34;95336.34;10530098;28;1901;-72
2022/08/04 17:26:04;;;;;;;;;;;;;;;31.46;27.98;95331.38;10528625;28;1810;-72
2022/08/04 17:31:10;;;;;;;;;;;;;;;31.42;27.94;95335.41;10527161;28;1890;-71
2022/08/04 17:36:14;;;;;;;;;;;;;;;31.43;28.41;95329.47;10526675;28;1909;-71
2022/08/04 17:41:18;;;;;;;;;;;;;;;31.31;28.73;95332.81;10523876;28;1989;-71
2022/08/04 17:46:32;;;;;;;;;;;;;;;31.34;28.91;95326.41;10523853;28;1917;-72
2022/08/04 17:51:36;;;;;;;;;;;;;;;31.10;29.16;95327.50;10556247;27;1990;-72
2022/08/04 17:56:59;;;;;;;;;;;;;;;31.01;29.39;95330.81;10558146;27;1811;-72
2022/08/04 18:02:03;;;;;;;;;;;;;;;30.84;29.22;95324.28;10523796;28;2003;-72
2022/08/04 18:07:27;;;;;;;;;;;;;;;30.73;29.63;95328.38;10533532;28;2026;-72
2022/08/04 18:12:51;;;;;;;;;;;;;;;30.65;29.95;95322.09;10521753;28;1839;-72
2022/08/04 18:17:58;;;;;;;;;;;;;;;30.47;30.44;95324.28;10538924;28;1910;-71
2022/08/04 18:23:22;;;;;;;;;;;;;;;30.22;30.96;95330.09;10519553;28;1911;-73
2022/08/04 18:28:35;;;;;;;;;;;;;;;30.04;31.18;95328.28;10519289;28;2140;-72
2022/08/04 18:33:38;;;;;;;;;;;;;;;29.84;31.12;95327.28;10520297;28;1791;-73
2022/08/04 18:38:44;;;;;;;;;;;;;;;29.56;31.89;95333.81;10521932;28;2187;-73
2022/08/04 18:43:58;;;;;;;;;;;;;;;29.24;32.55;95339.56;10551406;27;2123;-71
2022/08/04 18:49:01;;;;;;;;;;;;;;;29.00;35.04;95350.34;10520913;28;1938;-72
2022/08/04 18:54:06;;;;;;;;;;;;;;;28.82;35.57;95355.16;10522780;28;1899;-70
2022/08/04 18:59:11;;;;;;;;;;;;;;;28.65;36.42;95362.34;10517551;28;1908;-72
2022/08/04 19:04:16;;;;;;;;;;;;;;;28.34;37.40;95365.97;10521662;28;1985;-71
2022/08/04 19:09:38;;;;;;;;;;;;;;;28.17;37.96;95362.03;10519990;28;2121;-70
2022/08/04 19:14:54;;;;;;;;;;;;;;;28.12;38.43;95365.19;10518303;28;1887;-72
2022/08/04 19:20:01;;;;;;;;;;;;;;;27.87;38.81;95368.00;10519598;28;1988;-73
2022/08/04 19:25:05;;;;;;;;;;;;;;;27.81;39.07;95381.41;10518502;28;2205;-71
2022/08/04 19:30:11;;;;;;;;;;;;;;;27.62;39.81;95381.75;10518980;28;1887;-71
2022/08/04 19:35:19;;;;;;;;;;;;;;;27.53;40.36;95384.09;10547951;28;2198;-72
2022/08/04 19:40:25;;;;;;;;;;;;;;;27.46;40.24;95393.16;10522304;28;1914;-70
2022/08/04 19:45:36;;;;;;;;;;;;;;;27.28;40.94;95395.09;10527305;28;1840;-71
2022/08/04 19:50:47;;;;;;;;;;;;;;;27.24;41.37;95395.09;10539158;28;1889;-71
2022/08/04 19:55:52;;;;;;;;;;;;;;;27.17;41.75;95400.59;10545508;28;1941;-71
2022/08/04 20:00:55;;;;;;;;;;;;;;;26.98;42.36;95400.88;10556546;27;1914;-71
2022/08/04 20:05:59;;;;;;;;;;;;;;;26.91;42.89;95405.19;10530460;28;1859;-71
2022/08/04 20:11:02;;;;;;;;;;;;;;;26.72;43.58;95402.75;10524808;28;1784;-71
2022/08/04 20:16:06;;;;;;;;;;;;;;;26.64;44.00;95398.34;10528233;28;1887;-72
2022/08/04 20:21:30;;;;;;;;;;;;;;;26.44;44.71;95399.81;10527941;28;1976;-72
2022/08/04 20:26:54;;;;;;;;;;;;;;;26.23;45.66;95403.22;10526655;28;1875;-71
2022/08/04 20:31:58;;;;;;;;;;;;;;;26.07;45.82;95392.47;10529558;28;1735;-71
2022/08/04 20:37:11;;;;;;;;;;;;;;;26.00;46.83;95400.69;10527805;28;1724;-70
2022/08/04 20:42:17;;;;;;;;;;;;;;;25.92;47.55;95393.53;10524671;28;2010;-71
2022/08/04 20:47:29;;;;;;;;;;;;;;;25.78;48.14;95388.72;10542436;28;1928;-72
2022/08/04 20:52:38;;;;;;;;;;;;;;;25.80;48.41;95392.66;10525793;28;1755;-71
2022/08/04 20:57:42;;;;;;;;;;;;;;;25.67;49.00;95394.09;10526594;28;1870;-71
2022/08/04 21:02:52;;;;;;;;;;;;;;;25.58;50.02;95386.16;10525293;28;1906;-71
2022/08/04 21:07:56;;;;;;;;;;;;;;;25.48;50.51;95392.34;10544025;28;1695;-71
2022/08/04 21:13:00;;;;;;;;;;;;;;;25.35;51.19;95399.28;10526535;28;1874;-71
2022/08/04 21:18:05;;;;;;;;;;;;;;;25.34;51.49;95400.47;10523700;28;2224;-71
2022/08/04 21:23:13;;;;;;;;;;;;;;;25.31;51.76;95382.72;10524662;28;1908;-71
2022/08/04 21:28:22;;;;;;;;;;;;;;;25.17;52.45;95392.81;10528971;28;1961;-71
2022/08/04 21:33:29;;;;;;;;;;;;;;;25.08;53.23;95389.59;10524533;28;2182;-71
2022/08/04 21:38:53;;;;;;;;;;;;;;;24.93;53.89;95394.88;10541959;28;1882;-71
2022/08/04 21:43:57;;;;;;;;;;;;;;;24.97;54.17;95389.41;10520878;28;1970;-71
2022/08/04 21:49:01;;;;;;;;;;;;;;;24.93;54.66;95394.06;10523993;28;1886;-71
2022/08/04 21:54:12;;;;;;;;;;;;;;;24.94;55.04;95393.72;10522955;28;1907;-71
2022/08/04 21:59:19;;;;;;;;;;;;;;;24.71;56.43;95399.31;10539621;28;1716;-73
2022/08/04 22:04:32;;;;;;;;;;;;;;;24.65;57.51;95397.28;10525577;28;1913;-71
2022/08/04 22:09:40;;;;;;;;;;;;;;;24.63;58.36;95403.16;10538811;28;1930;-71
2022/08/04 22:15:03;;;;;;;;;;;;;;;24.60;59.24;95403.09;10521428;28;1867;-72
2022/08/04 22:20:27;;;;;;;;;;;;;;;24.52;59.92;95413.19;10523245;28;1925;-71
2022/08/04 22:25:31;;;;;;;;;;;;;;;24.40;60.67;95399.69;10524140;28;1915;-71
2022/08/04 22:30:39;;;;;;;;;;;;;;;24.34;61.40;95399.22;10520293;28;1850;-72
2022/08/04 22:35:53;;;;;;;;;;;;;;;24.24;62.16;95392.38;10522115;28;1712;-71
2022/08/04 22:41:00;;;;;;;;;;;;;;;24.10;62.89;95385.88;10519615;28;1911;-71
2022/08/04 22:46:03;;;;;;;;;;;;;;;23.86;64.31;95387.09;10524461;28;1820;-71
2022/08/04 22:51:08;;;;;;;;;;;;;;;23.72;65.48;95391.19;10521871;28;1824;-73
2022/08/04 22:56:15;;;;;;;;;;;;;;;23.61;66.57;95400.38;10522633;28;1871;-71
2022/08/04 23:01:38;;;;;;;;;;;;;;;23.43;67.76;95392.63;10521471;28;1909;-72
2022/08/04 23:07:02;;;;;;;;;;;;;;;23.36;68.55;95398.00;10521689;28;1874;-72
2022/08/04 23:12:11;;;;;;;;;;;;;;;23.23;69.34;95402.06;10520514;28;1924;-72
2022/08/04 23:17:30;;;;;;;;;;;;;;;23.25;69.86;95397.00;10556893;28;1869;-71
2022/08/04 23:22:50;;;;;;;;;;;;;;;23.09;70.15;95397.09;10530762;28;1908;-71
2022/08/04 23:27:59;;;;;;;;;;;;;;;23.14;69.92;95396.00;10528050;28;1876;-71
2022/08/04 23:33:06;;;;;;;;;;;;;;;23.08;70.88;95387.28;10532606;28;1783;-71
2022/08/04 23:38:13;;;;;;;;;;;;;;;23.11;71.10;95385.78;10530842;28;1908;-71
2022/08/04 23:43:34;;;;;;;;;;;;;;;23.01;71.48;95376.19;10528147;28;1925;-71
2022/08/04 23:48:52;;;;;;;;;;;;;;;22.98;72.16;95371.44;10529603;28;1862;-71
2022/08/04 23:53:56;;;;;;;;;;;;;;;22.90;72.72;95366.97;10529702;28;1920;-71
2022/08/04 23:59:05;;;;;;;;;;;;;;;22.84;73.33;95371.13;10526862;28;1843;-70
